Time;durP1;ratioP1;P1;durP2;ratioP2;P2;SDS_P1;SDS_P2;PMS_P1;PMS_P2;Temp;Humidity;BMP_temperature;BMP_pressure;BME280_temperature;BME280_humidity;BME280_pressure;Samples;Min_cycle;Max_cycle;Signal;HPM_P1;HPM_P2
2022/04/20 00:01:27;;;;;;;0.77;0.75;;;13.00;99.00;;;;;;5045610;28;20224;-64
2022/04/20 00:03:53;;;;;;;0.82;0.73;;;13.10;99.20;;;;;;5024696;28;20321;-66
2022/04/20 00:06:22;;;;;;;0.70;0.70;;;12.90;99.00;;;;;;5032638;28;20303;-66
2022/04/20 00:08:48;;;;;;;0.70;0.70;;;12.90;99.10;;;;;;5030726;28;20548;-65
2022/04/20 00:11:15;;;;;;;0.95;0.70;;;12.90;99.20;;;;;;5044987;28;20575;-65
2022/04/20 00:13:42;;;;;;;0.73;0.60;;;12.80;99.20;;;;;;5043571;28;20202;-64
2022/04/20 00:16:09;;;;;;;0.60;0.60;;;12.70;99.10;;;;;;5056555;28;20207;-65
2022/04/20 00:18:36;;;;;;;0.80;0.80;;;12.70;99.10;;;;;;5056789;28;20247;-64
2022/04/20 00:21:03;;;;;;;1.67;0.90;;;12.70;99.00;;;;;;5058378;28;20315;-66
2022/04/20 00:23:31;;;;;;;0.93;0.93;;;12.70;99.10;;;;;;5060127;28;20406;-66
2022/04/20 00:25:58;;;;;;;0.90;0.90;;;12.70;99.50;;;;;;5063084;28;20291;-65
2022/04/20 00:28:25;;;;;;;0.80;0.80;;;12.70;99.20;;;;;;5064642;28;20244;-65
2022/04/20 00:30:51;;;;;;;0.90;0.90;;;12.60;99.00;;;;;;5066095;28;20231;-67
2022/04/20 00:33:18;;;;;;;0.80;0.80;;;12.60;99.20;;;;;;5060103;28;20288;-66
2022/04/20 00:35:45;;;;;;;0.70;0.70;;;12.60;99.20;;;;;;5026071;28;20225;-65
2022/04/20 00:38:12;;;;;;;0.93;0.93;;;12.60;99.20;;;;;;5020202;28;20205;-65
2022/04/20 00:40:41;;;;;;;0.70;0.70;;;12.50;99.00;;;;;;5015217;28;20336;-65
2022/04/20 00:43:09;;;;;;;0.85;0.80;;;12.50;99.10;;;;;;5015153;28;20292;-66
2022/04/20 00:45:36;;;;;;;1.10;0.85;;;12.50;99.10;;;;;;5015270;28;20240;-65
2022/04/20 00:48:05;;;;;;;0.80;0.80;;;12.40;99.10;;;;;;5014259;28;20248;-64
2022/04/20 00:50:33;;;;;;;1.25;1.00;;;12.40;98.90;;;;;;5014333;28;20260;-65
2022/04/20 00:52:59;;;;;;;0.90;0.90;;;12.40;99.10;;;;;;5014554;28;20292;-65
2022/04/20 00:55:26;;;;;;;0.90;0.90;;;12.40;98.90;;;;;;5014204;28;20292;-67
2022/04/20 00:57:54;;;;;;;0.82;0.82;;;12.40;98.80;;;;;;5013826;28;20556;-64
2022/04/20 01:00:21;;;;;;;0.90;0.90;;;12.40;98.70;;;;;;5014301;28;20229;-64
2022/04/20 01:02:48;;;;;;;0.75;0.70;;;12.40;99.00;;;;;;5014418;28;20201;-65
2022/04/20 01:05:16;;;;;;;0.90;0.90;;;12.30;99.00;;;;;;5014176;28;20719;-63
2022/04/20 01:07:42;;;;;;;0.82;0.82;;;12.30;98.90;;;;;;5014148;28;20292;-63
2022/04/20 01:10:10;;;;;;;0.95;0.95;;;12.30;98.80;;;;;;5014854;28;20225;-64
2022/04/20 01:12:37;;;;;;;0.68;0.68;;;12.30;99.00;;;;;;5012718;28;20687;-66
2022/04/20 01:15:06;;;;;;;0.90;0.90;;;12.30;99.00;;;;;;5015927;28;20641;-65
2022/04/20 01:17:33;;;;;;;0.60;0.60;;;12.30;98.80;;;;;;5015012;28;20274;-66
2022/04/20 01:19:59;;;;;;;0.70;0.70;;;12.30;99.00;;;;;;5014218;28;20265;-65
2022/04/20 01:22:28;;;;;;;0.80;0.80;;;12.20;98.70;;;;;;5015103;28;20667;-64
2022/04/20 01:24:55;;;;;;;0.75;0.75;;;12.20;98.80;;;;;;5014729;28;20221;-65
2022/04/20 01:27:23;;;;;;;0.85;0.85;;;12.20;98.80;;;;;;5013512;28;20212;-64
2022/04/20 01:29:50;;;;;;;0.70;0.70;;;12.20;98.80;;;;;;5013939;28;20209;-65
2022/04/20 01:32:17;;;;;;;1.00;1.00;;;12.10;98.50;;;;;;5014267;28;20296;-64
2022/04/20 01:34:44;;;;;;;0.80;0.80;;;12.10;98.70;;;;;;5013980;28;20240;-64
2022/04/20 01:37:11;;;;;;;1.10;1.00;;;12.20;98.90;;;;;;5019295;28;20297;-64
2022/04/20 01:39:39;;;;;;;0.80;0.80;;;12.10;98.80;;;;;;5018665;28;20644;-64
2022/04/20 01:42:09;;;;;;;0.60;0.60;;;12.00;98.80;;;;;;5012833;28;20236;-65
2022/04/20 01:44:36;;;;;;;0.77;0.77;;;12.00;98.90;;;;;;5015542;28;20244;-66
2022/04/20 01:47:03;;;;;;;0.70;0.70;;;12.00;98.90;;;;;;5013886;28;20635;-66
2022/04/20 01:49:30;;;;;;;0.82;0.82;;;12.00;99.10;;;;;;5013907;28;20308;-64
2022/04/20 01:51:57;;;;;;;0.63;0.63;;;11.90;99.10;;;;;;5013106;28;20320;-63
2022/04/20 01:54:24;;;;;;;0.70;0.70;;;11.90;99.20;;;;;;5013563;28;20206;-66
2022/04/20 01:56:53;;;;;;;0.90;0.90;;;11.90;99.20;;;;;;5012963;28;20300;-66
2022/04/20 01:59:20;;;;;;;0.70;0.70;;;11.90;99.20;;;;;;5013382;28;20667;-64
2022/04/20 02:04:31;;;;;;;0.73;0.73;;;11.80;99.10;;;;;;5013444;28;20325;-64
2022/04/20 02:06:58;;;;;;;0.75;0.75;;;11.70;99.20;;;;;;5012611;28;20232;-64
2022/04/20 02:09:25;;;;;;;0.80;0.80;;;11.70;99.10;;;;;;5013353;28;20263;-65
2022/04/20 02:11:53;;;;;;;0.95;0.95;;;11.60;99.20;;;;;;5013402;28;20261;-66
2022/04/20 02:14:20;;;;;;;0.70;0.70;;;11.50;99.10;;;;;;5013112;28;20308;-65
2022/04/20 02:16:47;;;;;;;0.75;0.75;;;11.60;99.40;;;;;;5012333;28;20304;-64
2022/04/20 02:19:14;;;;;;;0.70;0.70;;;11.50;99.40;;;;;;5013284;28;20212;-65
2022/04/20 02:21:41;;;;;;;0.70;0.70;;;11.50;99.60;;;;;;5012920;28;20324;-64
2022/04/20 02:24:08;;;;;;;0.80;0.80;;;11.50;99.60;;;;;;5012797;28;20781;-66
2022/04/20 02:26:35;;;;;;;0.70;0.70;;;11.50;99.90;;;;;;5012348;28;20237;-65
2022/04/20 02:29:03;;;;;;;0.70;0.70;;;11.40;99.80;;;;;;5012827;28;20296;-65
2022/04/20 02:31:31;;;;;;;1.23;0.70;;;11.40;99.90;;;;;;5012762;28;20833;-64
2022/04/20 02:33:57;;;;;;;0.75;0.75;;;11.30;99.90;;;;;;5013176;28;20296;-65
2022/04/20 02:36:25;;;;;;;0.90;0.90;;;11.50;99.90;;;;;;5012624;28;20212;-64
2022/04/20 02:38:52;;;;;;;0.75;0.75;;;11.30;99.90;;;;;;5012825;28;20232;-65
2022/04/20 02:41:19;;;;;;;1.55;1.00;;;11.30;99.90;;;;;;5015665;28;20307;-65
2022/04/20 02:43:46;;;;;;;0.70;0.70;;;11.30;99.90;;;;;;5016210;28;20233;-65
2022/04/20 02:46:14;;;;;;;0.70;0.70;;;11.20;99.90;;;;;;5013738;28;20269;-63
2022/04/20 02:48:41;;;;;;;0.60;0.60;;;11.20;99.90;;;;;;5013980;28;20209;-66
2022/04/20 02:51:09;;;;;;;1.55;0.75;;;11.20;99.90;;;;;;5024232;28;20236;-65
2022/04/20 02:53:36;;;;;;;1.27;0.75;;;11.20;99.90;;;;;;5032800;28;20201;-66
2022/04/20 02:56:03;;;;;;;0.75;0.75;;;11.20;99.90;;;;;;5043302;28;20236;-65
2022/04/20 02:58:30;;;;;;;0.70;0.70;;;11.20;99.90;;;;;;5041618;28;20236;-65
2022/04/20 03:00:56;;;;;;;0.88;0.88;;;11.20;99.90;;;;;;5034256;28;20228;-67
2022/04/20 03:03:25;;;;;;;1.58;0.88;;;11.10;99.90;;;;;;5018103;28;20575;-65
2022/04/20 03:05:53;;;;;;;1.17;0.70;;;11.20;99.90;;;;;;5014049;28;20316;-66
2022/04/20 03:08:20;;;;;;;1.13;0.90;;;11.10;99.90;;;;;;5012479;28;20236;-65
2022/04/20 03:10:47;;;;;;;0.80;0.80;;;11.20;99.90;;;;;;5012799;28;20243;-65
2022/04/20 03:13:15;;;;;;;0.80;0.80;;;11.10;99.90;;;;;;5012804;28;20209;-64
2022/04/20 03:15:42;;;;;;;0.70;0.70;;;11.10;99.90;;;;;;5012295;28;20202;-64
2022/04/20 03:18:09;;;;;;;0.88;0.82;;;11.10;99.90;;;;;;5011577;28;20591;-63
2022/04/20 03:20:37;;;;;;;0.80;0.80;;;11.00;99.90;;;;;;5012227;28;20320;-66
2022/04/20 03:23:04;;;;;;;1.27;1.00;;;10.90;99.90;;;;;;5012086;28;20221;-65
2022/04/20 03:25:31;;;;;;;0.98;0.93;;;10.80;99.90;;;;;;5012562;28;20233;-64
2022/04/20 03:27:58;;;;;;;0.80;0.80;;;10.80;99.90;;;;;;5011770;28;20267;-64
2022/04/20 03:30:25;;;;;;;0.80;0.80;;;10.80;99.90;;;;;;5016994;28;20288;-64
2022/04/20 03:32:52;;;;;;;0.85;0.80;;;10.80;99.90;;;;;;5017895;28;20209;-65
2022/04/20 03:35:18;;;;;;;0.80;0.80;;;10.80;99.90;;;;;;5017979;28;20236;-65
2022/04/20 03:37:47;;;;;;;0.88;0.88;;;10.80;99.90;;;;;;5017952;28;20265;-66
2022/04/20 03:40:13;;;;;;;0.80;0.80;;;10.70;99.90;;;;;;5019019;28;20247;-64
2022/04/20 03:42:42;;;;;;;1.00;1.00;;;10.60;99.90;;;;;;5018900;28;20205;-64
2022/04/20 03:45:09;;;;;;;0.70;0.70;;;10.60;99.90;;;;;;5015578;28;20232;-64
2022/04/20 03:47:36;;;;;;;0.88;0.88;;;10.50;99.90;;;;;;5011480;28;20234;-66
2022/04/20 03:50:03;;;;;;;0.90;0.90;;;10.50;99.90;;;;;;5011306;28;20694;-64
2022/04/20 03:52:30;;;;;;;0.90;0.90;;;10.50;99.90;;;;;;5011752;28;20739;-65
2022/04/20 03:54:59;;;;;;;0.90;0.90;;;10.50;99.90;;;;;;5022582;28;20284;-66
2022/04/20 03:57:25;;;;;;;0.90;0.90;;;10.40;99.90;;;;;;5026934;28;20207;-64
2022/04/20 03:59:52;;;;;;;1.08;1.08;;;10.40;99.90;;;;;;5031657;28;20300;-65
2022/04/20 04:02:19;;;;;;;0.73;0.73;;;10.30;99.90;;;;;;5031453;28;20362;-65
2022/04/20 04:04:46;;;;;;;0.98;0.98;;;10.30;99.90;;;;;;5033714;28;20246;-66
2022/04/20 04:07:13;;;;;;;0.80;0.80;;;10.30;99.90;;;;;;5037651;28;20258;-65
2022/04/20 04:09:40;;;;;;;0.70;0.70;;;10.20;99.90;;;;;;5036035;28;20208;-64
2022/04/20 04:12:09;;;;;;;0.80;0.80;;;10.20;99.90;;;;;;5035286;28;20251;-65
2022/04/20 04:14:40;;;;;;;0.95;0.95;;;10.20;99.90;;;;;;5035213;28;20205;-65
2022/04/20 04:17:07;;;;;;;0.82;0.80;;;10.10;99.90;;;;;;5034248;28;20287;-65
2022/04/20 04:19:35;;;;;;;0.70;0.70;;;10.00;99.90;;;;;;5035059;28;20694;-65
2022/04/20 04:22:02;;;;;;;0.90;0.90;;;10.00;99.90;;;;;;5035111;28;20274;-64
2022/04/20 04:24:39;;;;;;;1.30;0.93;;;9.90;99.90;;;;;;5035995;28;20270;-66
2022/04/20 04:27:08;;;;;;;0.80;0.80;;;9.90;99.90;;;;;;5034816;28;20266;-64
2022/04/20 04:29:35;;;;;;;0.90;0.90;;;10.00;99.90;;;;;;5035842;28;20227;-65
2022/04/20 04:32:02;;;;;;;1.05;1.00;;;9.90;99.90;;;;;;5024377;28;20315;-64
2022/04/20 04:34:30;;;;;;;0.98;0.98;;;9.90;99.90;;;;;;5031630;28;20574;-65
2022/04/20 04:36:57;;;;;;;1.00;1.00;;;9.90;99.90;;;;;;5032904;28;20885;-65
2022/04/20 04:39:28;;;;;;;1.00;1.00;;;9.90;99.90;;;;;;5032942;28;20354;-63
2022/04/20 04:41:56;;;;;;;0.90;0.90;;;9.90;99.90;;;;;;5021734;28;20698;-65
2022/04/20 04:44:25;;;;;;;0.90;0.90;;;9.90;99.90;;;;;;5026434;28;20220;-64
2022/04/20 04:49:36;;;;;;;1.05;0.95;;;10.00;99.90;;;;;;5023181;28;20699;-64
2022/04/20 04:52:04;;;;;;;0.80;0.80;;;10.00;99.90;;;;;;5022009;28;20681;-65
2022/04/20 04:54:33;;;;;;;0.90;0.90;;;10.00;99.90;;;;;;5026144;28;20228;-66
2022/04/20 04:57:00;;;;;;;0.90;0.90;;;10.00;99.90;;;;;;5028887;28;20217;-64
2022/04/20 04:59:28;;;;;;;1.15;1.13;;;10.00;99.90;;;;;;5014465;28;20205;-66
2022/04/20 05:01:55;;;;;;;0.93;0.93;;;10.10;99.90;;;;;;5018006;28;20738;-64
2022/04/20 05:04:22;;;;;;;0.97;0.97;;;10.10;99.90;;;;;;5025175;28;20552;-64
2022/04/20 05:06:49;;;;;;;1.10;1.00;;;10.20;99.90;;;;;;5020035;28;20573;-65
2022/04/20 05:09:16;;;;;;;0.90;0.90;;;10.40;99.90;;;;;;5016543;28;20297;-64
2022/04/20 05:11:43;;;;;;;0.90;0.90;;;10.30;99.90;;;;;;5020294;28;20248;-65
2022/04/20 05:14:13;;;;;;;0.80;0.80;;;10.50;99.90;;;;;;5027697;28;20201;-64
2022/04/20 05:16:41;;;;;;;0.98;0.98;;;10.60;99.90;;;;;;5032172;28;20679;-64
2022/04/20 05:19:08;;;;;;;1.08;0.90;;;10.60;99.90;;;;;;5022715;28;20237;-65
2022/04/20 05:21:35;;;;;;;0.80;0.80;;;10.60;99.90;;;;;;5018449;28;20227;-64
2022/04/20 05:24:02;;;;;;;0.60;0.60;;;10.80;99.90;;;;;;5027700;28;20677;-66
2022/04/20 05:26:29;;;;;;;0.90;0.90;;;10.90;99.90;;;;;;5026563;28;20224;-64
2022/04/20 05:28:56;;;;;;;0.75;0.75;;;11.00;99.90;;;;;;5030654;28;20291;-66
2022/04/20 05:31:23;;;;;;;1.05;1.05;;;11.00;99.90;;;;;;5023812;28;20221;-66
2022/04/20 05:33:51;;;;;;;1.67;0.90;;;11.00;99.90;;;;;;5035215;28;20310;-63
2022/04/20 05:36:19;;;;;;;1.08;1.08;;;11.00;99.90;;;;;;5017239;28;20209;-65
2022/04/20 05:41:42;;;;;;;1.02;1.02;;;11.20;99.90;;;;;;5028227;28;20744;-68
2022/04/20 05:44:11;;;;;;;1.38;1.02;;;11.30;99.90;;;;;;5045488;28;20717;-65
2022/04/20 05:46:38;;;;;;;0.80;0.80;;;11.20;99.90;;;;;;5026623;28;20284;-64
2022/04/20 05:49:06;;;;;;;1.00;1.00;;;11.20;99.80;;;;;;5027740;28;20240;-64
2022/04/20 05:51:33;;;;;;;0.80;0.80;;;11.30;99.90;;;;;;5044207;28;20236;-65
2022/04/20 05:54:00;;;;;;;0.70;0.70;;;11.40;99.90;;;;;;5035065;28;20695;-65
2022/04/20 05:56:27;;;;;;;1.00;1.00;;;11.40;99.80;;;;;;5031254;28;20232;-64
2022/04/20 05:58:54;;;;;;;0.80;0.80;;;11.40;99.80;;;;;;5021759;28;20212;-65
2022/04/20 06:01:24;;;;;;;0.70;0.70;;;11.50;99.70;;;;;;5032191;28;20232;-64
2022/04/20 06:03:51;;;;;;;0.80;0.80;;;11.50;99.70;;;;;;5035060;28;20212;-65
2022/04/20 06:06:20;;;;;;;1.00;1.00;;;11.60;99.30;;;;;;5033589;28;20855;-64
2022/04/20 06:08:47;;;;;;;1.00;1.00;;;11.70;99.40;;;;;;5020943;28;20232;-65
2022/04/20 06:11:14;;;;;;;0.70;0.70;;;11.80;98.70;;;;;;5018988;28;20324;-65
2022/04/20 06:13:41;;;;;;;0.80;0.80;;;11.80;98.80;;;;;;5033143;28;20288;-64
2022/04/20 06:16:08;;;;;;;0.98;0.90;;;11.90;98.90;;;;;;5030248;28;20197;-65
2022/04/20 06:18:35;;;;;;;0.77;0.77;;;12.00;98.40;;;;;;5020983;28;20205;-65
2022/04/20 06:21:05;;;;;;;1.10;1.00;;;12.10;98.70;;;;;;5014330;28;20261;-65
2022/04/20 06:23:33;;;;;;;0.70;0.70;;;12.20;98.80;;;;;;5013707;28;20212;-65
2022/04/20 06:26:01;;;;;;;0.60;0.60;;;12.20;98.00;;;;;;5014354;28;20592;-65
2022/04/20 06:28:28;;;;;;;0.85;0.85;;;12.30;98.00;;;;;;5011821;28;20241;-65
2022/04/20 06:30:56;;;;;;;0.95;0.90;;;12.40;97.80;;;;;;5012935;28;20308;-65
2022/04/20 06:33:23;;;;;;;0.80;0.80;;;12.50;97.50;;;;;;5028668;28;20274;-65
2022/04/20 06:35:51;;;;;;;0.95;0.95;;;12.50;97.40;;;;;;5032836;28;20640;-66
2022/04/20 06:38:17;;;;;;;0.73;0.73;;;12.60;97.50;;;;;;5032310;28;20201;-64
2022/04/20 06:40:46;;;;;;;1.00;1.00;;;12.60;97.00;;;;;;5033585;28;20310;-65
2022/04/20 06:43:13;;;;;;;0.77;0.77;;;12.60;96.20;;;;;;5049883;28;20243;-65
2022/04/20 06:45:40;;;;;;;0.52;0.52;;;12.60;95.90;;;;;;5052410;28;20234;-64
2022/04/20 06:48:07;;;;;;;0.80;0.80;;;12.70;96.20;;;;;;5052624;28;20208;-67
2022/04/20 06:50:34;;;;;;;0.80;0.80;;;12.70;96.20;;;;;;5052088;28;20235;-65
2022/04/20 06:58:35;;;;;;;0.95;0.82;;;13.00;95.80;;;;;;5032445;28;20686;-65
2022/04/20 07:01:05;;;;;;;0.60;0.60;;;13.00;95.90;;;;;;5035824;28;20239;-67
2022/04/20 07:03:32;;;;;;;0.82;0.82;;;13.10;96.00;;;;;;5038409;28;20217;-63
2022/04/20 07:06:00;;;;;;;1.27;0.80;;;13.30;95.40;;;;;;5032183;28;20312;-65
2022/04/20 07:08:27;;;;;;;0.60;0.60;;;13.30;94.70;;;;;;5068902;22;20749;-68
2022/04/20 07:10:55;;;;;;;0.73;0.73;;;13.30;94.90;;;;;;5044629;28;20239;-68
2022/04/20 07:13:22;;;;;;;1.05;1.05;;;13.40;94.40;;;;;;5029704;28;20228;-66
2022/04/20 07:15:50;;;;;;;0.75;0.75;;;13.50;94.70;;;;;;5013500;28;20220;-68
2022/04/20 07:18:17;;;;;;;0.60;0.60;;;13.60;94.10;;;;;;5011409;28;20233;-68
2022/04/20 07:20:44;;;;;;;0.73;0.73;;;13.70;94.70;;;;;;5012360;28;20256;-68
2022/04/20 07:23:12;;;;;;;0.70;0.70;;;13.90;94.90;;;;;;5012626;28;20271;-67
2022/04/20 07:25:39;;;;;;;1.27;0.70;;;14.00;95.20;;;;;;5014651;28;20257;-66
2022/04/20 07:28:08;;;;;;;0.70;0.70;;;14.10;94.70;;;;;;5013143;28;20725;-67
2022/04/20 07:30:35;;;;;;;0.70;0.70;;;14.20;94.10;;;;;;5013381;28;20220;-66
2022/04/20 07:33:02;;;;;;;0.65;0.65;;;14.30;94.30;;;;;;5022049;28;20240;-66
2022/04/20 07:35:29;;;;;;;0.70;0.70;;;14.40;94.50;;;;;;5022186;28;20205;-67
2022/04/20 07:37:56;;;;;;;0.95;0.95;;;14.50;94.40;;;;;;5012381;28;20301;-67
2022/04/20 07:40:24;;;;;;;0.75;0.75;;;14.60;95.10;;;;;;5024188;28;20265;-66
2022/04/20 07:42:54;;;;;;;0.80;0.80;;;14.70;93.90;;;;;;5029619;28;20209;-68
2022/04/20 07:45:25;;;;;;;0.70;0.70;;;14.80;93.60;;;;;;5028003;28;20201;-66
2022/04/20 07:47:54;;;;;;;0.70;0.70;;;15.00;93.40;;;;;;5025996;28;20256;-67
2022/04/20 07:50:23;;;;;;;0.63;0.63;;;15.10;93.90;;;;;;5015647;28;20209;-66
2022/04/20 07:52:52;;;;;;;0.70;0.70;;;15.20;94.00;;;;;;5012984;28;20679;-68
2022/04/20 07:55:21;;;;;;;0.60;0.60;;;15.30;93.90;;;;;;5013111;28;20205;-66
2022/04/20 07:57:49;;;;;;;1.33;0.93;;;15.50;93.90;;;;;;5011898;28;20264;-67
2022/04/20 08:00:17;;;;;;;0.75;0.75;;;15.60;93.70;;;;;;5013028;28;20217;-67
2022/04/20 08:02:46;;;;;;;0.60;0.60;;;15.80;93.30;;;;;;5012701;28;20212;-66
2022/04/20 08:05:14;;;;;;;0.55;0.55;;;15.80;92.80;;;;;;5015267;28;20675;-66
2022/04/20 08:07:41;;;;;;;0.40;0.40;;;15.90;93.30;;;;;;5022878;28;20232;-67
2022/04/20 08:10:10;;;;;;;0.57;0.57;;;16.00;92.60;;;;;;5021227;28;20297;-66
2022/04/20 08:12:39;;;;;;;0.50;0.50;;;16.00;92.40;;;;;;5021756;28;20201;-66
2022/04/20 08:15:07;;;;;;;0.60;0.60;;;16.10;92.80;;;;;;5019092;28;20201;-67
2022/04/20 08:17:35;;;;;;;0.52;0.52;;;16.10;92.60;;;;;;5014875;28;20221;-67
2022/04/20 08:20:05;;;;;;;0.90;0.90;;;16.20;91.20;;;;;;5013748;28;20255;-65
2022/04/20 08:22:32;;;;;;;0.60;0.60;;;16.40;91.90;;;;;;5013086;28;20216;-67
2022/04/20 08:25:02;;;;;;;1.00;1.00;;;16.50;92.20;;;;;;5018002;28;20228;-67
2022/04/20 08:27:30;;;;;;;0.70;0.70;;;16.50;90.90;;;;;;5021841;28;20283;-67
2022/04/20 08:29:57;;;;;;;0.80;0.80;;;16.60;89.70;;;;;;5022848;28;20206;-66
2022/04/20 08:32:24;;;;;;;0.50;0.50;;;16.60;90.80;;;;;;5018584;28;20267;-67
2022/04/20 08:34:51;;;;;;;0.70;0.70;;;16.60;90.40;;;;;;5012656;28;20209;-68
2022/04/20 08:37:20;;;;;;;0.70;0.70;;;16.70;90.30;;;;;;5011837;28;20225;-68
2022/04/20 08:39:47;;;;;;;0.60;0.60;;;16.60;88.90;;;;;;5012429;28;20949;-68
2022/04/20 08:42:17;;;;;;;0.95;0.90;;;16.60;90.00;;;;;;5012808;28;20213;-67
2022/04/20 08:44:48;;;;;;;0.70;0.70;;;16.70;89.30;;;;;;5012410;28;20301;-66
2022/04/20 08:47:20;;;;;;;0.75;0.75;;;16.80;90.40;;;;;;5011140;28;20225;-67
2022/04/20 08:49:49;;;;;;;0.50;0.50;;;16.90;90.50;;;;;;5012511;28;20580;-66
2022/04/20 08:55:04;;;;;;;2.38;0.73;;;17.30;90.00;;;;;;5015673;28;20205;-68
2022/04/20 08:57:33;;;;;;;0.50;0.50;;;17.40;90.20;;;;;;5015007;28;20308;-66
2022/04/20 09:00:01;;;;;;;0.63;0.63;;;17.40;89.70;;;;;;5018351;28;20304;-67
2022/04/20 09:02:29;;;;;;;1.35;0.73;;;17.50;90.00;;;;;;5016449;28;20209;-67
2022/04/20 09:04:56;;;;;;;1.15;0.77;;;17.60;90.00;;;;;;5015855;28;20209;-68
2022/04/20 09:07:25;;;;;;;0.68;0.68;;;17.60;89.10;;;;;;5014416;28;20237;-65
2022/04/20 09:09:52;;;;;;;0.57;0.57;;;17.40;86.50;;;;;;5015341;28;20216;-68
2022/04/20 09:12:22;;;;;;;0.93;0.90;;;17.50;86.60;;;;;;5016627;28;20573;-67
2022/04/20 09:14:51;;;;;;;0.52;0.52;;;17.70;87.10;;;;;;5014980;28;20685;-67
2022/04/20 09:17:19;;;;;;;1.05;0.80;;;17.70;86.00;;;;;;5021190;28;20236;-68
2022/04/20 09:19:46;;;;;;;0.60;0.60;;;17.80;86.70;;;;;;5026805;28;20232;-68
2022/04/20 09:22:21;;;;;;;0.50;0.50;;;17.80;85.30;;;;;;5034991;28;20215;-68
2022/04/20 09:25:07;;;;;;;0.55;0.55;;;17.80;86.00;;;;;;5035172;28;20210;-67
2022/04/20 09:27:36;;;;;;;0.60;0.60;;;18.00;86.20;;;;;;5034655;28;20263;-67
2022/04/20 09:30:04;;;;;;;0.60;0.60;;;18.10;85.40;;;;;;5035248;28;20287;-68
2022/04/20 09:32:37;;;;;;;0.60;0.60;;;18.20;84.40;;;;;;5034818;28;20674;-68
2022/04/20 09:35:06;;;;;;;0.60;0.60;;;18.20;84.10;;;;;;5034945;28;20675;-67
2022/04/20 09:37:34;;;;;;;0.60;0.60;;;18.30;85.80;;;;;;5034724;28;20226;-69
2022/04/20 09:40:04;;;;;;;0.90;0.90;;;18.30;83.30;;;;;;5034989;28;20213;-67
2022/04/20 09:42:31;;;;;;;0.63;0.63;;;18.40;84.60;;;;;;5036174;28;20224;-68
2022/04/20 09:45:00;;;;;;;0.70;0.70;;;18.50;85.00;;;;;;5035172;28;20663;-67
2022/04/20 09:50:16;;;;;;;0.60;0.60;;;18.90;84.90;;;;;;5035242;28;20745;-68
2022/04/20 09:52:47;;;;;;;0.60;0.60;;;19.10;83.80;;;;;;5034730;28;20271;-68
2022/04/20 09:55:18;;;;;;;1.17;0.65;;;19.00;82.10;;;;;;5033968;28;20209;-69
2022/04/20 09:57:45;;;;;;;0.55;0.55;;;19.00;81.70;;;;;;5033857;28;20271;-68
2022/04/20 10:00:15;;;;;;;0.60;0.60;;;18.90;81.90;;;;;;5034592;28;20588;-68
2022/04/20 10:02:47;;;;;;;0.60;0.60;;;18.90;82.00;;;;;;5033315;28;20208;-68
2022/04/20 10:05:14;;;;;;;0.70;0.70;;;18.80;79.00;;;;;;5033758;28;20205;-67
2022/04/20 10:07:41;;;;;;;0.40;0.40;;;18.40;79.50;;;;;;5033315;28;20235;-67
2022/04/20 10:10:10;;;;;;;0.60;0.60;;;18.40;81.20;;;;;;5036080;28;20209;-69
2022/04/20 10:12:40;;;;;;;0.60;0.60;;;18.60;82.00;;;;;;5035025;28;20239;-67
2022/04/20 10:17:56;;;;;;;0.65;0.65;;;18.90;82.00;;;;;;5034859;28;20295;-66
2022/04/20 10:20:26;;;;;;;0.52;0.52;;;19.00;82.00;;;;;;5036339;28;20266;-68
2022/04/20 10:22:53;;;;;;;0.50;0.50;;;19.10;81.40;;;;;;5035744;28;20204;-67
2022/04/20 10:25:21;;;;;;;0.60;0.60;;;19.20;80.60;;;;;;5034277;28;20219;-67
2022/04/20 10:28:04;;;;;;;0.82;0.75;;;19.10;81.50;;;;;;5034658;28;20324;-67
2022/04/20 10:30:41;;;;;;;0.60;0.60;;;19.10;80.70;;;;;;5035690;28;20219;-67
2022/04/20 10:33:10;;;;;;;0.80;0.80;;;18.90;81.40;;;;;;5035945;28;20242;-68
2022/04/20 10:35:56;;;;;;;0.60;0.60;;;19.00;80.80;;;;;;5038273;28;20291;-67
2022/04/20 10:38:24;;;;;;;0.45;0.45;;;19.00;80.50;;;;;;5037760;28;20311;-68
2022/04/20 10:41:05;;;;;;;0.70;0.68;;;19.00;80.50;;;;;;5032897;28;20262;-68
2022/04/20 10:43:35;;;;;;;0.65;0.65;;;19.00;80.40;;;;;;5033321;28;20626;-69
2022/04/20 10:46:12;;;;;;;0.60;0.60;;;19.10;81.70;;;;;;5034158;28;20703;-67
2022/04/20 10:48:51;;;;;;;0.70;0.70;;;19.20;81.90;;;;;;5032503;28;20228;-67
2022/04/20 10:51:22;;;;;;;0.77;0.77;;;19.20;79.50;;;;;;5032861;28;20209;-68
2022/04/20 10:53:49;;;;;;;0.50;0.50;;;19.50;80.30;;;;;;5033328;28;20346;-69
2022/04/20 10:56:18;;;;;;;0.68;0.68;;;19.60;81.20;;;;;;5032878;28;20204;-67
2022/04/20 10:59:10;;;;;;;0.70;0.70;;;19.70;81.50;;;;;;5032495;28;20232;-67
2022/04/20 11:02:06;;;;;;;0.60;0.60;;;19.70;80.00;;;;;;5032676;28;20291;-68
2022/04/20 11:04:34;;;;;;;0.60;0.60;;;19.90;81.50;;;;;;5032876;28;20236;-67
2022/04/20 11:07:22;;;;;;;0.70;0.70;;;19.90;81.70;;;;;;5031528;28;20323;-68
2022/04/20 11:10:05;;;;;;;0.63;0.63;;;19.80;80.10;;;;;;5032885;28;20812;-68
2022/04/20 11:19:06;;;;;;;0.60;0.60;;;19.80;77.90;;;;;;5034285;28;20220;-68
2022/04/20 11:21:34;;;;;;;0.73;0.73;;;20.00;79.10;;;;;;5035224;28;20235;-67
2022/04/20 11:24:06;;;;;;;0.68;0.68;;;20.00;80.30;;;;;;5036213;28;20227;-67
2022/04/20 11:26:35;;;;;;;0.60;0.60;;;20.10;78.20;;;;;;5044407;28;20860;-68
2022/04/20 11:29:10;;;;;;;0.73;0.60;;;20.10;77.10;;;;;;5043959;28;20330;-67
2022/04/20 11:31:40;;;;;;;0.80;0.80;;;20.30;78.30;;;;;;5037456;28;20291;-68
2022/04/20 11:34:07;;;;;;;0.80;0.80;;;20.40;78.00;;;;;;5034361;28;20201;-67
2022/04/20 11:36:34;;;;;;;0.57;0.57;;;20.50;78.20;;;;;;5032784;28;20211;-67
2022/04/20 11:39:02;;;;;;;2.28;0.63;;;20.50;77.00;;;;;;5033055;28;20965;-68
2022/04/20 11:41:29;;;;;;;0.85;0.85;;;20.50;75.40;;;;;;5032719;28;20204;-68
2022/04/20 11:43:58;;;;;;;0.80;0.80;;;20.40;77.80;;;;;;5032447;28;20294;-68
2022/04/20 11:46:25;;;;;;;0.77;0.77;;;20.30;77.40;;;;;;5032535;28;20212;-67
2022/04/20 11:48:55;;;;;;;1.52;0.90;;;20.30;78.50;;;;;;5032410;28;20319;-67
2022/04/20 11:51:27;;;;;;;0.70;0.70;;;20.30;80.30;;;;;;5035141;28;20855;-67
2022/04/20 11:53:54;;;;;;;0.90;0.90;;;20.40;79.30;;;;;;5033703;28;20262;-66
2022/04/20 11:56:35;;;;;;;0.60;0.60;;;20.40;78.40;;;;;;5032507;28;20248;-67
2022/04/20 11:59:03;;;;;;;0.70;0.70;;;20.30;78.80;;;;;;5034228;28;20259;-70
2022/04/20 12:01:31;;;;;;;0.80;0.80;;;20.40;78.70;;;;;;5034767;28;20215;-67
2022/04/20 12:04:01;;;;;;;0.80;0.80;;;20.20;78.40;;;;;;5036809;28;20200;-67
2022/04/20 12:06:28;;;;;;;0.70;0.70;;;20.30;78.90;;;;;;5034726;28;20212;-67
2022/04/20 12:08:56;;;;;;;1.42;0.77;;;20.20;78.10;;;;;;5015382;28;20268;-66
2022/04/20 12:11:23;;;;;;;0.70;0.70;;;20.20;78.40;;;;;;5013537;28;20269;-67
2022/04/20 12:13:55;;;;;;;0.68;0.68;;;20.30;79.00;;;;;;5017356;28;20201;-68
2022/04/20 12:16:24;;;;;;;0.70;0.70;;;20.30;78.50;;;;;;5018169;28;20300;-67
2022/04/20 12:18:52;;;;;;;0.90;0.90;;;20.30;78.20;;;;;;5016575;28;20217;-68
2022/04/20 12:21:45;;;;;;;0.73;0.73;;;20.30;76.50;;;;;;5019389;28;20216;-67
2022/04/20 12:24:19;;;;;;;0.80;0.80;;;20.30;76.50;;;;;;5003390;28;20286;-67
2022/04/20 12:26:47;;;;;;;0.88;0.88;;;20.40;77.50;;;;;;5024369;28;20193;-68
2022/04/20 12:29:15;;;;;;;0.60;0.60;;;20.30;76.00;;;;;;5021201;28;20205;-67
2022/04/20 12:31:43;;;;;;;0.95;0.95;;;20.30;75.10;;;;;;5009134;28;20719;-66
2022/04/20 12:34:13;;;;;;;0.57;0.57;;;20.30;76.60;;;;;;5018315;28;20217;-67
2022/04/20 12:37:03;;;;;;;0.70;0.70;;;20.40;75.40;;;;;;5018007;28;20205;-67
2022/04/20 12:39:32;;;;;;;0.70;0.70;;;20.50;76.00;;;;;;5013976;28;20215;-68
2022/04/20 12:42:02;;;;;;;0.90;0.90;;;20.90;77.60;;;;;;5015050;28;20201;-70
2022/04/20 12:44:37;;;;;;;0.82;0.82;;;20.90;77.40;;;;;;5013943;28;20717;-66
2022/04/20 12:47:19;;;;;;;0.82;0.80;;;20.70;75.60;;;;;;5020121;28;20236;-68
2022/04/20 12:49:51;;;;;;;0.63;0.63;;;20.80;75.00;;;;;;5021231;28;20244;-68
2022/04/20 12:52:20;;;;;;;0.90;0.90;;;20.80;76.30;;;;;;5021012;28;20236;-66
2022/04/20 12:54:54;;;;;;;0.80;0.80;;;20.80;74.70;;;;;;5014537;28;20197;-68
2022/04/20 13:02:57;;;;;;;0.80;0.80;;;20.70;73.90;;;;;;5016199;28;20220;-66
2022/04/20 13:05:24;;;;;;;0.70;0.70;;;20.70;74.60;;;;;;5009030;28;20287;-67
2022/04/20 13:07:52;;;;;;;0.50;0.50;;;20.70;73.80;;;;;;5013818;28;20275;-67
2022/04/20 13:10:19;;;;;;;0.75;0.75;;;20.70;74.80;;;;;;5017965;28;20251;-66
2022/04/20 13:12:50;;;;;;;0.70;0.70;;;20.70;74.70;;;;;;5023831;28;20218;-68
2022/04/20 13:15:17;;;;;;;0.85;0.80;;;20.70;73.60;;;;;;5011364;28;20264;-65
2022/04/20 13:17:44;;;;;;;1.05;0.98;;;20.70;72.90;;;;;;5012617;28;20304;-66
2022/04/20 13:20:12;;;;;;;0.60;0.60;;;20.80;74.40;;;;;;5013061;28;20667;-65
2022/04/20 13:22:39;;;;;;;0.70;0.70;;;20.80;74.10;;;;;;5013393;28;20205;-67
2022/04/20 13:27:55;;;;;;;1.17;0.85;;;20.80;72.10;;;;;;5036450;28;20231;-68
2022/04/20 13:30:24;;;;;;;1.08;1.08;;;20.80;73.40;;;;;;5031762;28;20205;-68
2022/04/20 13:32:51;;;;;;;1.25;1.25;;;20.70;71.00;;;;;;5031742;28;20204;-66